sensor_id;sensor_type;location;lat;lon;timestamp;pressure;altitude;pressure_sealevel;temperature;humidity
76074;BME280;64776;42.636;24.358;2023-11-21T00:01:39;89979.19;;;0.46;86.73
76074;BME280;64776;42.636;24.358;2023-11-21T00:04:40;89977.19;;;0.50;86.69
76074;BME280;64776;42.636;24.358;2023-11-21T00:07:41;89973.88;;;0.34;86.42
76074;BME280;64776;42.636;24.358;2023-11-21T00:10:42;89968.28;;;0.32;87.08
76074;BME280;64776;42.636;24.358;2023-11-21T00:13:44;89970.09;;;0.35;86.80
76074;BME280;64776;42.636;24.358;2023-11-21T00:16:45;89966.56;;;0.25;87.56
76074;BME280;64776;42.636;24.358;2023-11-21T00:19:46;89972.72;;;0.19;88.30
76074;BME280;64776;42.636;24.358;2023-11-21T00:22:47;89973.03;;;0.21;88.54
76074;BME280;64776;42.636;24.358;2023-11-21T00:25:48;89968.94;;;0.36;87.93
76074;BME280;64776;42.636;24.358;2023-11-21T00:28:50;89968.16;;;0.23;88.59
76074;BME280;64776;42.636;24.358;2023-11-21T00:31:52;89965.84;;;0.25;88.35
76074;BME280;64776;42.636;24.358;2023-11-21T00:34:52;89965.94;;;0.05;89.12
76074;BME280;64776;42.636;24.358;2023-11-21T00:37:53;89974.13;;;-0.09;88.88
76074;BME280;64776;42.636;24.358;2023-11-21T00:40:54;89969.56;;;-0.21;89.74
76074;BME280;64776;42.636;24.358;2023-11-21T00:43:56;89969.78;;;0.00;89.68
76074;BME280;64776;42.636;24.358;2023-11-21T00:46:57;89971.50;;;0.07;89.06
76074;BME280;64776;42.636;24.358;2023-11-21T00:49:57;89971.25;;;0.18;88.98
76074;BME280;64776;42.636;24.358;2023-11-21T00:52:58;89976.94;;;0.16;88.72
76074;BME280;64776;42.636;24.358;2023-11-21T00:55:59;89969.38;;;0.18;88.43
76074;BME280;64776;42.636;24.358;2023-11-21T00:59:01;89971.25;;;0.18;88.08
76074;BME280;64776;42.636;24.358;2023-11-21T01:02:02;89968.31;;;0.16;88.68
76074;BME280;64776;42.636;24.358;2023-11-21T01:05:03;89977.00;;;-0.04;89.35
76074;BME280;64776;42.636;24.358;2023-11-21T01:08:04;89966.19;;;-0.22;90.67
76074;BME280;64776;42.636;24.358;2023-11-21T01:11:05;89965.84;;;-0.08;91.14
76074;BME280;64776;42.636;24.358;2023-11-21T01:14:07;89965.63;;;0.03;90.27
76074;BME280;64776;42.636;24.358;2023-11-21T01:17:08;89969.41;;;0.02;90.42
76074;BME280;64776;42.636;24.358;2023-11-21T01:20:10;89967.81;;;0.05;89.59
76074;BME280;64776;42.636;24.358;2023-11-21T01:23:11;89971.41;;;0.11;89.58
76074;BME280;64776;42.636;24.358;2023-11-21T01:26:11;89967.81;;;0.05;89.23
76074;BME280;64776;42.636;24.358;2023-11-21T01:29:14;89971.28;;;-0.15;89.62
76074;BME280;64776;42.636;24.358;2023-11-21T01:32:14;89971.28;;;-0.15;90.21
76074;BME280;64776;42.636;24.358;2023-11-21T01:35:15;89967.72;;;-0.24;91.32
76074;BME280;64776;42.636;24.358;2023-11-21T01:38:16;89955.56;;;-0.15;91.08
76074;BME280;64776;42.636;24.358;2023-11-21T01:41:17;89957.66;;;-0.10;89.95
76074;BME280;64776;42.636;24.358;2023-11-21T01:44:19;89952.19;;;-0.15;90.24
76074;BME280;64776;42.636;24.358;2023-11-21T01:47:20;89949.66;;;-0.03;90.17
76074;BME280;64776;42.636;24.358;2023-11-21T01:50:21;89944.53;;;0.07;89.73
76074;BME280;64776;42.636;24.358;2023-11-21T01:53:23;89948.13;;;0.13;88.95
76074;BME280;64776;42.636;24.358;2023-11-21T01:56:24;89948.97;;;0.10;88.89
76074;BME280;64776;42.636;24.358;2023-11-21T01:59:27;89952.81;;;0.05;89.02
76074;BME280;64776;42.636;24.358;2023-11-21T02:02:28;89946.50;;;0.03;87.93
76074;BME280;64776;42.636;24.358;2023-11-21T02:05:29;89940.56;;;0.02;88.50
76074;BME280;64776;42.636;24.358;2023-11-21T02:08:36;89946.69;;;-0.05;88.56
76074;BME280;64776;42.636;24.358;2023-11-21T02:11:37;89954.56;;;-0.05;87.76
76074;BME280;64776;42.636;24.358;2023-11-21T02:14:39;89955.69;;;-0.06;87.81
76074;BME280;64776;42.636;24.358;2023-11-21T02:17:40;89944.31;;;-0.15;88.63
76074;BME280;64776;42.636;24.358;2023-11-21T02:20:41;89946.69;;;-0.21;88.85
76074;BME280;64776;42.636;24.358;2023-11-21T02:23:43;89945.88;;;-0.18;88.52
76074;BME280;64776;42.636;24.358;2023-11-21T02:26:44;89944.22;;;-0.12;88.44
76074;BME280;64776;42.636;24.358;2023-11-21T02:30:19;89939.72;;;-0.11;88.42
76074;BME280;64776;42.636;24.358;2023-11-21T02:33:36;89945.88;;;-0.18;88.23
76074;BME280;64776;42.636;24.358;2023-11-21T02:36:37;89955.84;;;-0.29;88.15
76074;BME280;64776;42.636;24.358;2023-11-21T02:39:39;89953.50;;;-0.39;88.25
76074;BME280;64776;42.636;24.358;2023-11-21T02:42:40;89951.25;;;-0.41;88.81
76074;BME280;64776;42.636;24.358;2023-11-21T02:45:40;89949.03;;;-0.58;89.65
76074;BME280;64776;42.636;24.358;2023-11-21T02:48:41;89944.38;;;-0.51;89.76
76074;BME280;64776;42.636;24.358;2023-11-21T02:51:42;89946.84;;;-0.44;89.85
76074;BME280;64776;42.636;24.358;2023-11-21T02:54:44;89943.41;;;-0.41;89.12
76074;BME280;64776;42.636;24.358;2023-11-21T02:57:45;89938.72;;;-0.49;89.69
76074;BME280;64776;42.636;24.358;2023-11-21T03:00:46;89940.44;;;-0.43;89.45
76074;BME280;64776;42.636;24.358;2023-11-21T03:03:46;89939.00;;;-0.44;89.53
76074;BME280;64776;42.636;24.358;2023-11-21T03:06:47;89934.72;;;-0.54;89.23
76074;BME280;64776;42.636;24.358;2023-11-21T03:09:49;89942.63;;;-0.57;88.87
76074;BME280;64776;42.636;24.358;2023-11-21T03:12:50;89940.09;;;-0.61;89.17
76074;BME280;64776;42.636;24.358;2023-11-21T03:15:50;89935.19;;;-0.59;89.38
76074;BME280;64776;42.636;24.358;2023-11-21T03:18:51;89941.06;;;-0.71;89.83
76074;BME280;64776;42.636;24.358;2023-11-21T03:21:52;89945.78;;;-0.82;90.57
76074;BME280;64776;42.636;24.358;2023-11-21T03:24:54;89954.09;;;-0.67;90.19
76074;BME280;64776;42.636;24.358;2023-11-21T03:27:55;89949.94;;;-0.65;90.57
76074;BME280;64776;42.636;24.358;2023-11-21T03:30:56;89953.28;;;-0.64;90.05
76074;BME280;64776;42.636;24.358;2023-11-21T03:33:56;89955.25;;;-0.68;89.45
76074;BME280;64776;42.636;24.358;2023-11-21T03:36:57;89946.31;;;-0.71;89.83
76074;BME280;64776;42.636;24.358;2023-11-21T03:39:59;89941.06;;;-0.71;89.05
76074;BME280;64776;42.636;24.358;2023-11-21T03:43:00;89938.69;;;-0.82;88.57
76074;BME280;64776;42.636;24.358;2023-11-21T03:46:01;89945.28;;;-0.93;89.51
76074;BME280;64776;42.636;24.358;2023-11-21T03:49:01;89939.38;;;-0.97;89.80
76074;BME280;64776;42.636;24.358;2023-11-21T03:52:02;89941.38;;;-0.85;89.82
76074;BME280;64776;42.636;24.358;2023-11-21T03:55:05;89941.22;;;-0.78;89.41
76074;BME280;64776;42.636;24.358;2023-11-21T03:58:06;89946.94;;;-0.83;88.98
76074;BME280;64776;42.636;24.358;2023-11-21T04:01:07;89955.97;;;-1.04;89.58
76074;BME280;64776;42.636;24.358;2023-11-21T04:04:08;89952.41;;;-1.13;90.49
76074;BME280;64776;42.636;24.358;2023-11-21T04:07:08;89947.91;;;-1.13;90.83
76074;BME280;64776;42.636;24.358;2023-11-21T04:10:10;89952.28;;;-1.06;90.54
76074;BME280;64776;42.636;24.358;2023-11-21T04:13:11;89959.66;;;-1.01;90.31
76074;BME280;64776;42.636;24.358;2023-11-21T04:16:12;89960.19;;;-0.90;89.72
76074;BME280;64776;42.636;24.358;2023-11-21T04:19:13;89950.38;;;-0.86;89.04
76074;BME280;64776;42.636;24.358;2023-11-21T04:22:13;89951.97;;;-0.92;89.36
76074;BME280;64776;42.636;24.358;2023-11-21T04:25:16;89946.38;;;-1.10;89.65
76074;BME280;64776;42.636;24.358;2023-11-21T04:28:17;89945.09;;;-1.02;90.02
76074;BME280;64776;42.636;24.358;2023-11-21T04:31:17;89945.94;;;-0.89;89.67
76074;BME280;64776;42.636;24.358;2023-11-21T04:34:18;89956.44;;;-0.89;89.81
76074;BME280;64776;42.636;24.358;2023-11-21T04:37:19;89963.66;;;-0.77;89.17
76074;BME280;64776;42.636;24.358;2023-11-21T04:40:21;89963.25;;;-0.75;89.01
76074;BME280;64776;42.636;24.358;2023-11-21T04:43:22;89957.91;;;-0.72;89.41
76074;BME280;64776;42.636;24.358;2023-11-21T04:46:22;89955.63;;;-0.70;89.08
76074;BME280;64776;42.636;24.358;2023-11-21T04:49:23;89949.13;;;-0.62;88.80
76074;BME280;64776;42.636;24.358;2023-11-21T04:52:24;89950.44;;;-0.54;88.91
76074;BME280;64776;42.636;24.358;2023-11-21T04:55:26;89946.19;;;-0.48;89.18
76074;BME280;64776;42.636;24.358;2023-11-21T04:58:27;89945.69;;;-0.43;88.75
76074;BME280;64776;42.636;24.358;2023-11-21T05:01:27;89949.47;;;-0.44;88.94
76074;BME280;64776;42.636;24.358;2023-11-21T05:04:28;89940.44;;;-0.43;89.07
76074;BME280;64776;42.636;24.358;2023-11-21T05:07:29;89947.97;;;-0.45;88.83
76074;BME280;64776;42.636;24.358;2023-11-21T05:10:31;89950.94;;;-0.43;88.81
76074;BME280;64776;42.636;24.358;2023-11-21T05:13:33;89944.56;;;-0.42;88.83
76074;BME280;64776;42.636;24.358;2023-11-21T05:16:34;89944.69;;;-0.49;89.26
76074;BME280;64776;42.636;24.358;2023-11-21T05:19:35;89939.88;;;-0.50;89.49
76074;BME280;64776;42.636;24.358;2023-11-21T05:22:36;89937.00;;;-0.56;89.56
76074;BME280;64776;42.636;24.358;2023-11-21T05:25:38;89940.34;;;-0.55;90.10
76074;BME280;64776;42.636;24.358;2023-11-21T05:28:38;89936.28;;;-0.40;89.99
76074;BME280;64776;42.636;24.358;2023-11-21T05:31:39;89937.03;;;-0.40;89.54
76074;BME280;64776;42.636;24.358;2023-11-21T05:34:40;89943.72;;;-0.39;89.72
76074;BME280;64776;42.636;24.358;2023-11-21T05:37:41;89941.59;;;-0.44;89.69
76074;BME280;64776;42.636;24.358;2023-11-21T05:40:43;89941.34;;;-0.49;89.87
76074;BME280;64776;42.636;24.358;2023-11-21T05:43:44;89945.84;;;-0.50;89.40
76074;BME280;64776;42.636;24.358;2023-11-21T05:46:45;89947.66;;;-0.47;89.23
76074;BME280;64776;42.636;24.358;2023-11-21T05:49:46;89944.22;;;-0.44;89.26
76074;BME280;64776;42.636;24.358;2023-11-21T05:52:47;89944.88;;;-0.40;89.80
76074;BME280;64776;42.636;24.358;2023-11-21T05:55:49;89942.50;;;-0.34;89.79
76074;BME280;64776;42.636;24.358;2023-11-21T05:58:50;89943.91;;;-0.30;89.10
76074;BME280;64776;42.636;24.358;2023-11-21T06:01:50;89940.31;;;-0.36;89.78
76074;BME280;64776;42.636;24.358;2023-11-21T06:04:51;89950.19;;;-0.43;90.19
76074;BME280;64776;42.636;24.358;2023-11-21T06:07:53;89959.13;;;-0.41;89.99
76074;BME280;64776;42.636;24.358;2023-11-21T06:10:55;89960.44;;;-0.33;90.09
76074;BME280;64776;42.636;24.358;2023-11-21T06:13:56;89953.56;;;-0.27;90.19
76074;BME280;64776;42.636;24.358;2023-11-21T06:16:57;89951.84;;;-0.17;89.70
76074;BME280;64776;42.636;24.358;2023-11-21T06:19:58;89964.06;;;-0.11;89.92
76074;BME280;64776;42.636;24.358;2023-11-21T06:22:58;89963.09;;;-0.01;89.77
76074;BME280;64776;42.636;24.358;2023-11-21T06:26:01;89966.69;;;0.06;89.93
76074;BME280;64776;42.636;24.358;2023-11-21T06:29:01;89959.59;;;0.19;89.28
76074;BME280;64776;42.636;24.358;2023-11-21T06:32:02;89958.31;;;0.27;89.25
76074;BME280;64776;42.636;24.358;2023-11-21T06:35:04;89962.63;;;0.33;89.49
76074;BME280;64776;42.636;24.358;2023-11-21T06:38:05;89964.34;;;0.40;89.14
76074;BME280;64776;42.636;24.358;2023-11-21T06:41:07;89969.75;;;0.49;88.64
76074;BME280;64776;42.636;24.358;2023-11-21T06:44:08;89966.69;;;0.50;88.65
76074;BME280;64776;42.636;24.358;2023-11-21T06:47:09;89965.88;;;0.53;88.67
76074;BME280;64776;42.636;24.358;2023-11-21T06:50:10;89974.00;;;0.59;89.14
76074;BME280;64776;42.636;24.358;2023-11-21T06:53:11;89969.59;;;0.68;88.69
76074;BME280;64776;42.636;24.358;2023-11-21T06:56:18;89980.03;;;0.72;88.92
76074;BME280;64776;42.636;24.358;2023-11-21T06:59:19;89978.38;;;0.78;88.50
76074;BME280;64776;42.636;24.358;2023-11-21T07:02:20;89973.44;;;0.80;88.43
76074;BME280;64776;42.636;24.358;2023-11-21T07:05:22;89958.97;;;0.88;89.12
76074;BME280;64776;42.636;24.358;2023-11-21T07:08:22;89957.94;;;0.98;88.77
76074;BME280;64776;42.636;24.358;2023-11-21T07:11:25;89962.50;;;1.10;89.18
76074;BME280;64776;42.636;24.358;2023-11-21T07:14:25;89967.03;;;1.22;89.24
76074;BME280;64776;42.636;24.358;2023-11-21T07:17:26;89957.06;;;1.30;89.04
76074;BME280;64776;42.636;24.358;2023-11-21T07:20:27;89956.13;;;1.36;88.77
76074;BME280;64776;42.636;24.358;2023-11-21T07:23:28;89959.38;;;1.40;88.66
76074;BME280;64776;42.636;24.358;2023-11-21T07:26:30;89959.41;;;1.53;88.42
76074;BME280;64776;42.636;24.358;2023-11-21T07:29:31;89954.47;;;1.67;88.51
76074;BME280;64776;42.636;24.358;2023-11-21T07:32:32;89956.16;;;1.87;88.28
76074;BME280;64776;42.636;24.358;2023-11-21T07:35:32;89948.88;;;2.03;88.43
76074;BME280;64776;42.636;24.358;2023-11-21T07:38:33;89946.22;;;2.16;88.47
76074;BME280;64776;42.636;24.358;2023-11-21T07:41:35;89950.09;;;2.24;88.31
76074;BME280;64776;42.636;24.358;2023-11-21T07:44:36;89950.81;;;2.37;88.15
76074;BME280;64776;42.636;24.358;2023-11-21T07:47:37;89945.41;;;2.53;88.13
76074;BME280;64776;42.636;24.358;2023-11-21T07:50:37;89938.63;;;2.65;87.90
76074;BME280;64776;42.636;24.358;2023-11-21T07:53:38;89935.31;;;2.73;87.92
76074;BME280;64776;42.636;24.358;2023-11-21T07:56:40;89943.66;;;2.93;87.61
76074;BME280;64776;42.636;24.358;2023-11-21T07:59:41;89934.25;;;3.05;87.17
76074;BME280;64776;42.636;24.358;2023-11-21T08:02:42;89931.19;;;3.15;86.16
76074;BME280;64776;42.636;24.358;2023-11-21T08:05:43;89933.34;;;3.29;86.73
76074;BME280;64776;42.636;24.358;2023-11-21T08:08:43;89926.38;;;3.45;86.24
76074;BME280;64776;42.636;24.358;2023-11-21T08:11:45;89930.44;;;3.58;85.07
76074;BME280;64776;42.636;24.358;2023-11-21T08:14:46;89923.44;;;3.73;84.62
76074;BME280;64776;42.636;24.358;2023-11-21T08:17:47;89923.94;;;3.90;83.43
76074;BME280;64776;42.636;24.358;2023-11-21T08:20:48;89932.22;;;4.10;83.76
76074;BME280;64776;42.636;24.358;2023-11-21T08:23:49;89937.56;;;4.37;82.01
76074;BME280;64776;42.636;24.358;2023-11-21T08:26:51;89929.81;;;4.61;78.67
76074;BME280;64776;42.636;24.358;2023-11-21T08:29:52;89933.94;;;4.80;77.53
76074;BME280;64776;42.636;24.358;2023-11-21T08:32:52;89930.69;;;5.03;78.58
76074;BME280;64776;42.636;24.358;2023-11-21T08:35:53;89927.75;;;5.28;78.09
76074;BME280;64776;42.636;24.358;2023-11-21T08:38:54;89928.44;;;5.47;74.82
76074;BME280;64776;42.636;24.358;2023-11-21T08:41:56;89912.81;;;5.67;73.64
76074;BME280;64776;42.636;24.358;2023-11-21T08:44:57;89907.44;;;5.94;73.72
76074;BME280;64776;42.636;24.358;2023-11-21T08:47:58;89902.03;;;6.21;72.49
76074;BME280;64776;42.636;24.358;2023-11-21T08:50:59;89903.88;;;6.53;71.68
76074;BME280;64776;42.636;24.358;2023-11-21T08:53:59;89896.66;;;6.78;70.09
76074;BME280;64776;42.636;24.358;2023-11-21T08:57:02;89890.66;;;6.92;70.42
76074;BME280;64776;42.636;24.358;2023-11-21T09:00:04;89881.09;;;7.09;67.70
76074;BME280;64776;42.636;24.358;2023-11-21T09:03:05;89879.00;;;7.42;68.02
76074;BME280;64776;42.636;24.358;2023-11-21T09:06:07;89875.88;;;7.73;66.83
76074;BME280;64776;42.636;24.358;2023-11-21T09:09:08;89867.41;;;8.03;65.05
76074;BME280;64776;42.636;24.358;2023-11-21T09:12:10;89862.13;;;8.23;63.71
76074;BME280;64776;42.636;24.358;2023-11-21T09:15:11;89865.78;;;8.61;62.08
76074;BME280;64776;42.636;24.358;2023-11-21T09:18:12;89859.06;;;8.85;60.17
76074;BME280;64776;42.636;24.358;2023-11-21T09:21:13;89856.75;;;8.98;61.07
76074;BME280;64776;42.636;24.358;2023-11-21T09:24:13;89856.31;;;9.26;59.73
76074;BME280;64776;42.636;24.358;2023-11-21T09:27:16;89855.81;;;9.47;56.88
76074;BME280;64776;42.636;24.358;2023-11-21T09:30:16;89854.72;;;9.59;57.31
76074;BME280;64776;42.636;24.358;2023-11-21T09:33:17;89852.69;;;9.80;57.39
76074;BME280;64776;42.636;24.358;2023-11-21T09:36:18;89844.22;;;9.81;57.04
76074;BME280;64776;42.636;24.358;2023-11-21T09:39:19;89844.06;;;9.91;56.96
76074;BME280;64776;42.636;24.358;2023-11-21T09:42:23;89836.63;;;10.06;55.99
76074;BME280;64776;42.636;24.358;2023-11-21T09:45:27;89832.63;;;10.16;55.80
76074;BME280;64776;42.636;24.358;2023-11-21T09:48:29;89825.13;;;10.20;55.59
76074;BME280;64776;42.636;24.358;2023-11-21T09:51:31;89815.19;;;10.20;56.08
76074;BME280;64776;42.636;24.358;2023-11-21T09:54:34;89817.44;;;10.33;55.08
76074;BME280;64776;42.636;24.358;2023-11-21T09:57:37;89807.56;;;10.44;55.28
76074;BME280;64776;42.636;24.358;2023-11-21T10:00:40;89811.97;;;10.53;54.06
76074;BME280;64776;42.636;24.358;2023-11-21T10:03:41;89802.50;;;10.52;56.29
76074;BME280;64776;42.636;24.358;2023-11-21T10:06:42;89801.75;;;10.46;56.12
76074;BME280;64776;42.636;24.358;2023-11-21T10:09:44;89804.91;;;10.50;56.71
76074;BME280;64776;42.636;24.358;2023-11-21T10:12:49;89800.16;;;10.65;55.38
76074;BME280;64776;42.636;24.358;2023-11-21T10:15:51;89792.63;;;10.69;55.63
76074;BME280;64776;42.636;24.358;2023-11-21T10:18:52;89790.22;;;10.77;54.79
76074;BME280;64776;42.636;24.358;2023-11-21T10:21:53;89784.94;;;10.93;54.75
76074;BME280;64776;42.636;24.358;2023-11-21T10:24:54;89778.91;;;11.04;55.62
76074;BME280;64776;42.636;24.358;2023-11-21T10:28:02;89783.28;;;11.12;54.86
76074;BME280;64776;42.636;24.358;2023-11-21T10:31:03;89777.22;;;11.17;53.22
76074;BME280;64776;42.636;24.358;2023-11-21T10:34:13;89768.22;;;10.98;53.83
76074;BME280;64776;42.636;24.358;2023-11-21T10:37:14;89771.34;;;10.91;54.76
76074;BME280;64776;42.636;24.358;2023-11-21T10:40:15;89772.78;;;10.92;55.22
76074;BME280;64776;42.636;24.358;2023-11-21T10:43:17;89753.16;;;10.90;55.91
76074;BME280;64776;42.636;24.358;2023-11-21T10:46:18;89734.47;;;10.90;54.94
76074;BME280;64776;42.636;24.358;2023-11-21T10:49:20;89707.75;;;10.73;56.31
76074;BME280;64776;42.636;24.358;2023-11-21T10:52:21;89705.25;;;10.47;58.05
76074;BME280;64776;42.636;24.358;2023-11-21T10:55:22;89700.69;;;10.59;57.99
76074;BME280;64776;42.636;24.358;2023-11-21T10:58:24;89698.97;;;10.61;58.49
76074;BME280;64776;42.636;24.358;2023-11-21T11:01:27;89711.16;;;10.85;57.42
76074;BME280;64776;42.636;24.358;2023-11-21T11:04:30;89722.06;;;10.81;57.77
76074;BME280;64776;42.636;24.358;2023-11-21T11:07:32;89724.75;;;10.87;57.54
76074;BME280;64776;42.636;24.358;2023-11-21T11:10:34;89727.66;;;10.94;57.06
76074;BME280;64776;42.636;24.358;2023-11-21T11:13:37;89732.81;;;11.48;57.24
76074;BME280;64776;42.636;24.358;2023-11-21T11:16:39;89723.34;;;11.69;54.75
76074;BME280;64776;42.636;24.358;2023-11-21T11:19:40;89729.66;;;11.66;54.48
76074;BME280;64776;42.636;24.358;2023-11-21T11:22:46;89732.06;;;11.58;52.81
76074;BME280;64776;42.636;24.358;2023-11-21T11:26:01;89732.59;;;11.29;53.41
76074;BME280;64776;42.636;24.358;2023-11-21T11:29:14;89730.16;;;11.36;53.33
76074;BME280;64776;42.636;24.358;2023-11-21T11:32:32;89726.25;;;11.48;54.38
76074;BME280;64776;42.636;24.358;2023-11-21T11:35:42;89715.34;;;11.24;54.11
76074;BME280;64776;42.636;24.358;2023-11-21T11:38:46;89715.31;;;11.13;54.41
76074;BME280;64776;42.636;24.358;2023-11-21T11:41:47;89713.84;;;11.01;54.89
76074;BME280;64776;42.636;24.358;2023-11-21T11:44:51;89713.84;;;11.01;55.39
76074;BME280;64776;42.636;24.358;2023-11-21T11:47:56;89702.22;;;11.04;54.89
76074;BME280;64776;42.636;24.358;2023-11-21T11:51:04;89703.41;;;11.09;54.77
76074;BME280;64776;42.636;24.358;2023-11-21T11:54:06;89697.13;;;11.12;54.33
76074;BME280;64776;42.636;24.358;2023-11-21T11:57:07;89692.75;;;11.20;54.59
76074;BME280;64776;42.636;24.358;2023-11-21T12:00:11;89699.06;;;11.17;54.24
76074;BME280;64776;42.636;24.358;2023-11-21T12:03:13;89697.13;;;11.12;54.33
76074;BME280;64776;42.636;24.358;2023-11-21T12:06:14;89689.59;;;11.10;54.06
76074;BME280;64776;42.636;24.358;2023-11-21T12:09:17;89696.88;;;11.10;55.16
76074;BME280;64776;42.636;24.358;2023-11-21T12:12:22;89693.72;;;10.89;55.96
76074;BME280;64776;42.636;24.358;2023-11-21T12:15:24;89692.72;;;10.92;55.68
76074;BME280;64776;42.636;24.358;2023-11-21T12:18:25;89688.84;;;10.88;55.95
76074;BME280;64776;42.636;24.358;2023-11-21T12:21:26;89677.44;;;10.93;55.43
76074;BME280;64776;42.636;24.358;2023-11-21T12:24:28;89671.88;;;10.96;55.08
76074;BME280;64776;42.636;24.358;2023-11-21T12:27:29;89663.63;;;11.00;55.22
76074;BME280;64776;42.636;24.358;2023-11-21T12:30:34;89663.13;;;10.90;55.43
76074;BME280;64776;42.636;24.358;2023-11-21T12:33:35;89661.69;;;10.89;55.83
76074;BME280;64776;42.636;24.358;2023-11-21T12:36:36;89658.28;;;11.00;55.66
76074;BME280;64776;42.636;24.358;2023-11-21T12:39:37;89655.59;;;10.94;55.98
76074;BME280;64776;42.636;24.358;2023-11-21T12:42:39;89659.72;;;11.01;55.80
76074;BME280;64776;42.636;24.358;2023-11-21T12:45:42;89654.16;;;11.10;56.27
76074;BME280;64776;42.636;24.358;2023-11-21T12:48:44;89661.44;;;11.09;56.54
76074;BME280;64776;42.636;24.358;2023-11-21T12:51:45;89655.59;;;11.11;56.75
76074;BME280;64776;42.636;24.358;2023-11-21T12:54:46;89654.16;;;11.10;57.13
76074;BME280;64776;42.636;24.358;2023-11-21T12:57:48;89659.50;;;11.04;55.97
76074;BME280;64776;42.636;24.358;2023-11-21T13:00:51;89664.13;;;10.98;56.34
76074;BME280;64776;42.636;24.358;2023-11-21T13:03:51;89660.94;;;10.89;57.71
76074;BME280;64776;42.636;24.358;2023-11-21T13:06:52;89668.72;;;10.87;56.94
76074;BME280;64776;42.636;24.358;2023-11-21T13:09:53;89664.59;;;10.86;57.10
76074;BME280;64776;42.636;24.358;2023-11-21T13:12:56;89686.13;;;10.60;58.28
76074;BME280;64776;42.636;24.358;2023-11-21T13:16:00;89679.56;;;10.55;58.73
76074;BME280;64776;42.636;24.358;2023-11-21T13:19:01;89673.25;;;10.47;58.70
76074;BME280;64776;42.636;24.358;2023-11-21T13:22:01;89678.06;;;10.38;59.21
76074;BME280;64776;42.636;24.358;2023-11-21T13:25:02;89678.31;;;10.34;58.05
76074;BME280;64776;42.636;24.358;2023-11-21T13:28:03;89676.59;;;10.31;59.30
76074;BME280;64776;42.636;24.358;2023-11-21T13:31:06;89677.59;;;10.34;58.12
76074;BME280;64776;42.636;24.358;2023-11-21T13:34:23;89683.41;;;10.32;59.25
76074;BME280;64776;42.636;24.358;2023-11-21T13:37:24;89668.66;;;10.48;59.54
76074;BME280;64776;42.636;24.358;2023-11-21T13:40:26;89682.97;;;10.56;59.82
76074;BME280;64776;42.636;24.358;2023-11-21T13:43:26;89672.09;;;10.65;58.49
76074;BME280;64776;42.636;24.358;2023-11-21T13:46:29;89669.41;;;10.65;58.97
76074;BME280;64776;42.636;24.358;2023-11-21T13:49:29;89662.84;;;10.55;59.95
76074;BME280;64776;42.636;24.358;2023-11-21T13:52:30;89665.69;;;10.35;60.11
76074;BME280;64776;42.636;24.358;2023-11-21T13:55:31;89660.53;;;10.15;60.56
76074;BME280;64776;42.636;24.358;2023-11-21T13:58:32;89665.53;;;9.91;61.45
76074;BME280;64776;42.636;24.358;2023-11-21T14:01:34;89659.25;;;9.99;61.61
76074;BME280;64776;42.636;24.358;2023-11-21T14:04:34;89663.75;;;9.76;62.77
76074;BME280;64776;42.636;24.358;2023-11-21T14:07:35;89662.69;;;9.57;62.95
76074;BME280;64776;42.636;24.358;2023-11-21T14:10:36;89657.63;;;9.65;62.96
76074;BME280;64776;42.636;24.358;2023-11-21T14:13:37;89654.94;;;9.59;65.05
76074;BME280;64776;42.636;24.358;2023-11-21T14:16:39;89657.28;;;9.46;64.00
76074;BME280;64776;42.636;24.358;2023-11-21T14:19:39;89656.28;;;9.38;64.27
76074;BME280;64776;42.636;24.358;2023-11-21T14:22:40;89666.81;;;9.22;65.19
76074;BME280;64776;42.636;24.358;2023-11-21T14:25:41;89669.16;;;9.45;64.94
76074;BME280;64776;42.636;24.358;2023-11-21T14:28:42;89670.59;;;9.41;65.87
76074;BME280;64776;42.636;24.358;2023-11-21T14:31:44;89673.50;;;9.06;66.02
76074;BME280;64776;42.636;24.358;2023-11-21T14:34:45;89684.25;;;8.91;67.23
76074;BME280;64776;42.636;24.358;2023-11-21T14:37:46;89673.84;;;8.88;67.40
76074;BME280;64776;42.636;24.358;2023-11-21T14:40:47;89658.84;;;8.90;67.13
76074;BME280;64776;42.636;24.358;2023-11-21T14:43:48;89646.13;;;9.00;66.89
76074;BME280;64776;42.636;24.358;2023-11-21T14:46:50;89648.72;;;8.94;68.23
76074;BME280;64776;42.636;24.358;2023-11-21T14:49:51;89648.50;;;8.67;69.09
76074;BME280;64776;42.636;24.358;2023-11-21T14:52:51;89648.50;;;8.41;69.17
76074;BME280;64776;42.636;24.358;2023-11-21T14:55:52;89654.81;;;8.44;70.17
76074;BME280;64776;42.636;24.358;2023-11-21T14:58:54;89654.91;;;8.29;69.96
76074;BME280;64776;42.636;24.358;2023-11-21T15:01:57;89647.81;;;8.41;69.49
76074;BME280;64776;42.636;24.358;2023-11-21T15:04:58;89658.31;;;8.30;69.96
76074;BME280;64776;42.636;24.358;2023-11-21T15:07:59;89656.19;;;7.93;70.54
76074;BME280;64776;42.636;24.358;2023-11-21T15:10:59;89654.53;;;7.96;71.15
76074;BME280;64776;42.636;24.358;2023-11-21T15:14:00;89651.44;;;7.97;70.44
76074;BME280;64776;42.636;24.358;2023-11-21T15:17:02;89654.44;;;7.85;71.32
76074;BME280;64776;42.636;24.358;2023-11-21T15:20:04;89644.97;;;8.04;71.43
76074;BME280;64776;42.636;24.358;2023-11-21T15:23:05;89651.00;;;8.04;70.70
76074;BME280;64776;42.636;24.358;2023-11-21T15:26:06;89656.13;;;8.08;70.68
76074;BME280;64776;42.636;24.358;2023-11-21T15:29:09;89662.69;;;8.12;71.20
76074;BME280;64776;42.636;24.358;2023-11-21T15:32:12;89663.47;;;8.18;70.37
76074;BME280;64776;42.636;24.358;2023-11-21T15:35:12;89664.88;;;8.14;70.97
76074;BME280;64776;42.636;24.358;2023-11-21T15:38:13;89663.63;;;8.09;71.12
76074;BME280;64776;42.636;24.358;2023-11-21T15:41:14;89655.88;;;7.86;71.46
76074;BME280;64776;42.636;24.358;2023-11-21T15:44:15;89662.88;;;7.28;74.07
76074;BME280;64776;42.636;24.358;2023-11-21T15:47:17;89651.81;;;7.50;73.17
76074;BME280;64776;42.636;24.358;2023-11-21T15:50:18;89650.69;;;7.57;73.20
76074;BME280;64776;42.636;24.358;2023-11-21T15:53:19;89645.00;;;7.64;73.00
76074;BME280;64776;42.636;24.358;2023-11-21T15:56:19;89641.81;;;7.39;73.76